sensor_id;sensor_type;location;lat;lon;timestamp;pressure;altitude;pressure_sealevel;temperature;humidity
24666;BME280;29726;53.532;-1.478;2023-03-13T00:01:41;97658.72;;;15.39;100.00
24666;BME280;29726;53.532;-1.478;2023-03-13T00:04:25;97695.41;;;15.56;100.00
24666;BME280;29726;53.532;-1.478;2023-03-13T00:07:09;97694.47;;;15.53;100.00
24666;BME280;29726;53.532;-1.478;2023-03-13T00:09:54;97689.78;;;15.56;100.00
24666;BME280;29726;53.532;-1.478;2023-03-13T00:12:38;97674.22;;;15.55;100.00
24666;BME280;29726;53.532;-1.478;2023-03-13T00:15:22;97656.66;;;15.47;100.00
24666;BME280;29726;53.532;-1.478;2023-03-13T00:18:06;97669.16;;;15.53;100.00
24666;BME280;29726;53.532;-1.478;2023-03-13T00:21:06;97661.66;;;15.56;100.00
24666;BME280;29726;53.532;-1.478;2023-03-13T00:23:51;97674.22;;;15.55;100.00
24666;BME280;29726;53.532;-1.478;2023-03-13T00:26:35;97671.41;;;15.55;100.00
24666;BME280;29726;53.532;-1.478;2023-03-13T00:29:19;97649.72;;;15.48;100.00
24666;BME280;29726;53.532;-1.478;2023-03-13T00:32:03;97627.22;;;15.48;100.00
24666;BME280;29726;53.532;-1.478;2023-03-13T00:34:48;97642.53;;;15.54;100.00
24666;BME280;29726;53.532;-1.478;2023-03-13T00:37:32;97640.47;;;15.55;100.00
24666;BME280;29726;53.532;-1.478;2023-03-13T00:40:16;97620.03;;;15.54;100.00
24666;BME280;29726;53.532;-1.478;2023-03-13T00:43:01;97647.59;;;15.56;100.00
24666;BME280;29726;53.532;-1.478;2023-03-13T00:45:44;97623.63;;;15.55;100.00
24666;BME280;29726;53.532;-1.478;2023-03-13T00:48:29;97611.81;;;15.56;100.00
24666;BME280;29726;53.532;-1.478;2023-03-13T00:51:14;97605.25;;;15.54;100.00
24666;BME280;29726;53.532;-1.478;2023-03-13T00:53:59;97592.13;;;15.56;100.00
24666;BME280;29726;53.532;-1.478;2023-03-13T00:56:43;97584.25;;;15.55;100.00
24666;BME280;29726;53.532;-1.478;2023-03-13T00:59:27;97581.44;;;15.55;100.00
24666;BME280;29726;53.532;-1.478;2023-03-13T01:02:11;97588.22;;;15.52;100.00
24666;BME280;29726;53.532;-1.478;2023-03-13T01:04:55;97591.53;;;15.58;100.00
24666;BME280;29726;53.532;-1.478;2023-03-13T01:07:39;97555.03;;;15.50;100.00
24666;BME280;29726;53.532;-1.478;2023-03-13T01:10:23;97561.75;;;15.55;100.00
24666;BME280;29726;53.532;-1.478;2023-03-13T01:13:07;97551.84;;;15.54;100.00
24666;BME280;29726;53.532;-1.478;2023-03-13T01:15:51;97548.03;;;15.59;100.00
24666;BME280;29726;53.532;-1.478;2023-03-13T01:18:38;97527.09;;;15.52;100.00
24666;BME280;29726;53.532;-1.478;2023-03-13T01:21:23;97517.28;;;15.61;100.00
24666;BME280;29726;53.532;-1.478;2023-03-13T01:24:07;97501.22;;;15.54;100.00
24666;BME280;29726;53.532;-1.478;2023-03-13T01:26:51;97506.47;;;15.57;100.00
24666;BME280;29726;53.532;-1.478;2023-03-13T01:29:35;97481.31;;;15.59;100.00
24666;BME280;29726;53.532;-1.478;2023-03-13T01:32:19;97465.19;;;15.60;100.00
24666;BME280;29726;53.532;-1.478;2023-03-13T01:35:03;97464.78;;;15.63;100.00
24666;BME280;29726;53.532;-1.478;2023-03-13T01:37:47;97440.09;;;15.54;100.00
24666;BME280;29726;53.532;-1.478;2023-03-13T01:40:31;97432.38;;;15.62;100.00
24666;BME280;29726;53.532;-1.478;2023-03-13T01:43:26;97410.44;;;15.61;100.00
24666;BME280;29726;53.532;-1.478;2023-03-13T01:46:17;97406.63;;;15.66;100.00
24666;BME280;29726;53.532;-1.478;2023-03-13T01:51:58;97379.66;;;15.63;100.00
24666;BME280;29726;53.532;-1.478;2023-03-13T01:55:07;97353.03;;;15.64;100.00
24666;BME280;29726;53.532;-1.478;2023-03-13T01:57:53;97345.38;;;15.64;100.00
24666;BME280;29726;53.532;-1.478;2023-03-13T02:00:38;97348.91;;;15.65;100.00
24666;BME280;29726;53.532;-1.478;2023-03-13T02:03:26;97354.97;;;15.61;100.00
24666;BME280;29726;53.532;-1.478;2023-03-13T02:06:11;97329.22;;;15.65;100.00
24666;BME280;29726;53.532;-1.478;2023-03-13T02:09:02;97347.03;;;15.67;100.00
24666;BME280;29726;53.532;-1.478;2023-03-13T02:12:07;97335.03;;;15.67;100.00
24666;BME280;29726;53.532;-1.478;2023-03-13T02:14:52;97298.13;;;15.63;100.00
24666;BME280;29726;53.532;-1.478;2023-03-13T02:17:38;97285.72;;;15.66;100.00
24666;BME280;29726;53.532;-1.478;2023-03-13T02:20:23;97285.72;;;15.66;100.00
24666;BME280;29726;53.532;-1.478;2023-03-13T02:23:49;97285.91;;;15.68;100.00
24666;BME280;29726;53.532;-1.478;2023-03-13T02:26:36;97270.19;;;15.65;100.00
24666;BME280;29726;53.532;-1.478;2023-03-13T02:29:20;97266.97;;;15.68;100.00
24666;BME280;29726;53.532;-1.478;2023-03-13T02:32:04;97250.69;;;15.67;100.00
24666;BME280;29726;53.532;-1.478;2023-03-13T02:34:53;97252.16;;;15.68;100.00
24666;BME280;29726;53.532;-1.478;2023-03-13T02:37:41;97253.66;;;15.69;100.00
24666;BME280;29726;53.532;-1.478;2023-03-13T02:40:29;97219.91;;;15.69;100.00
24666;BME280;29726;53.532;-1.478;2023-03-13T02:43:35;97210.00;;;15.68;100.00
24666;BME280;29726;53.532;-1.478;2023-03-13T02:46:20;97173.25;;;15.66;100.00
24666;BME280;29726;53.532;-1.478;2023-03-13T02:49:19;97165.16;;;15.70;100.00
24666;BME280;29726;53.532;-1.478;2023-03-13T02:52:10;97153.09;;;15.60;100.00
24666;BME280;29726;53.532;-1.478;2023-03-13T02:54:59;97157.91;;;15.67;100.00
24666;BME280;29726;53.532;-1.478;2023-03-13T02:57:45;97141.34;;;15.71;100.00
24666;BME280;29726;53.532;-1.478;2023-03-13T03:00:29;97127.84;;;15.69;100.00
24666;BME280;29726;53.532;-1.478;2023-03-13T03:03:13;97140.00;;;15.72;100.00
24666;BME280;29726;53.532;-1.478;2023-03-13T03:05:56;97120.31;;;15.72;100.00
24666;BME280;29726;53.532;-1.478;2023-03-13T03:08:40;97105.19;;;15.67;100.00
24666;BME280;29726;53.532;-1.478;2023-03-13T03:11:26;97104.78;;;15.71;100.00
24666;BME280;29726;53.532;-1.478;2023-03-13T03:14:11;97083.78;;;15.72;100.00
24666;BME280;29726;53.532;-1.478;2023-03-13T03:16:55;97082.28;;;15.71;100.00
24666;BME280;29726;53.532;-1.478;2023-03-13T03:19:39;97075.34;;;15.72;100.00
24666;BME280;29726;53.532;-1.478;2023-03-13T03:22:23;97081.84;;;15.74;100.00
24666;BME280;29726;53.532;-1.478;2023-03-13T03:25:07;97098.56;;;15.72;100.00
24666;BME280;29726;53.532;-1.478;2023-03-13T03:27:51;97086.59;;;15.72;100.00
24666;BME280;29726;53.532;-1.478;2023-03-13T03:30:36;97084.34;;;15.70;100.00
24666;BME280;29726;53.532;-1.478;2023-03-13T03:33:21;97104.34;;;15.74;100.00
24666;BME280;29726;53.532;-1.478;2023-03-13T03:36:09;97080.34;;;15.73;100.00
24666;BME280;29726;53.532;-1.478;2023-03-13T03:38:53;97078.72;;;15.70;100.00
24666;BME280;29726;53.532;-1.478;2023-03-13T03:41:37;97072.22;;;15.68;100.00
24666;BME280;29726;53.532;-1.478;2023-03-13T03:44:21;97073.69;;;15.69;100.00
24666;BME280;29726;53.532;-1.478;2023-03-13T03:47:05;97058.47;;;15.72;100.00
24666;BME280;29726;53.532;-1.478;2023-03-13T03:49:49;97060.69;;;15.73;100.00
24666;BME280;29726;53.532;-1.478;2023-03-13T03:52:33;97053.22;;;15.59;100.00
24666;BME280;29726;53.532;-1.478;2023-03-13T03:55:18;97070.28;;;15.70;100.00
24666;BME280;29726;53.532;-1.478;2023-03-13T03:58:02;97076.06;;;15.72;100.00
24666;BME280;29726;53.532;-1.478;2023-03-13T04:00:46;97066.16;;;15.71;100.00
24666;BME280;29726;53.532;-1.478;2023-03-13T04:03:31;97080.50;;;15.75;100.00
24666;BME280;29726;53.532;-1.478;2023-03-13T04:06:15;97084.22;;;15.78;100.00
24666;BME280;29726;53.532;-1.478;2023-03-13T04:08:59;97062.91;;;15.75;100.00
24666;BME280;29726;53.532;-1.478;2023-03-13T04:11:43;97052.41;;;15.75;100.00
24666;BME280;29726;53.532;-1.478;2023-03-13T04:14:27;97068.69;;;15.77;100.00
24666;BME280;29726;53.532;-1.478;2023-03-13T04:17:11;97059.34;;;15.74;100.00
24666;BME280;29726;53.532;-1.478;2023-03-13T04:19:55;97041.00;;;15.73;100.00
24666;BME280;29726;53.532;-1.478;2023-03-13T04:22:40;97061.59;;;15.76;100.00
24666;BME280;29726;53.532;-1.478;2023-03-13T04:25:25;97053.72;;;15.74;100.00
24666;BME280;29726;53.532;-1.478;2023-03-13T04:28:09;97044.88;;;15.78;100.00
24666;BME280;29726;53.532;-1.478;2023-03-13T04:30:53;97030.03;;;15.77;100.00
24666;BME280;29726;53.532;-1.478;2023-03-13T04:33:41;97041.00;;;15.73;100.00
24666;BME280;29726;53.532;-1.478;2023-03-13T04:36:24;97055.97;;;15.76;100.00
24666;BME280;29726;53.532;-1.478;2023-03-13T04:39:08;97061.75;;;15.78;100.00
24666;BME280;29726;53.532;-1.478;2023-03-13T04:41:53;97051.97;;;15.79;100.00
24666;BME280;29726;53.532;-1.478;2023-03-13T04:44:38;97058.94;;;15.78;100.00
24666;BME280;29726;53.532;-1.478;2023-03-13T04:47:22;97046.91;;;15.77;100.00
24666;BME280;29726;53.532;-1.478;2023-03-13T04:50:06;97038.19;;;15.73;100.00
24666;BME280;29726;53.532;-1.478;2023-03-13T04:52:50;97025.16;;;15.68;100.00
24666;BME280;29726;53.532;-1.478;2023-03-13T04:55:34;97023.09;;;15.69;100.00
24666;BME280;29726;53.532;-1.478;2023-03-13T04:58:18;97034.78;;;15.75;100.00
24666;BME280;29726;53.532;-1.478;2023-03-13T05:01:02;97029.16;;;15.75;100.00
24666;BME280;29726;53.532;-1.478;2023-03-13T05:03:46;97026.19;;;15.73;100.00
24666;BME280;29726;53.532;-1.478;2023-03-13T05:06:30;97019.41;;;15.76;100.00
24666;BME280;29726;53.532;-1.478;2023-03-13T05:09:14;97015.09;;;15.75;100.00
24666;BME280;29726;53.532;-1.478;2023-03-13T05:11:57;96999.25;;;15.70;100.00
24666;BME280;29726;53.532;-1.478;2023-03-13T05:14:42;97001.78;;;15.75;100.00
24666;BME280;29726;53.532;-1.478;2023-03-13T05:17:26;96978.41;;;15.73;100.00
24666;BME280;29726;53.532;-1.478;2023-03-13T05:20:10;96973.50;;;15.73;100.00
24666;BME280;29726;53.532;-1.478;2023-03-13T05:22:54;96962.56;;;15.68;100.00
24666;BME280;29726;53.532;-1.478;2023-03-13T05:25:38;96987.13;;;15.77;100.00
24666;BME280;29726;53.532;-1.478;2023-03-13T05:28:22;96988.16;;;15.72;100.00
24666;BME280;29726;53.532;-1.478;2023-03-13T05:31:06;97008.16;;;15.76;100.00
24666;BME280;29726;53.532;-1.478;2023-03-13T05:33:50;96976.31;;;15.73;100.00
24666;BME280;29726;53.532;-1.478;2023-03-13T05:36:34;96973.81;;;15.77;100.00
24666;BME280;29726;53.532;-1.478;2023-03-13T05:39:18;96974.25;;;15.74;100.00
24666;BME280;29726;53.532;-1.478;2023-03-13T05:42:02;96938.59;;;15.76;100.00
24666;BME280;29726;53.532;-1.478;2023-03-13T05:44:46;96953.09;;;15.73;100.00
24666;BME280;29726;53.532;-1.478;2023-03-13T05:47:30;96944.19;;;15.76;100.00
24666;BME280;29726;53.532;-1.478;2023-03-13T05:50:14;96955.16;;;15.72;100.00
24666;BME280;29726;53.532;-1.478;2023-03-13T05:52:58;96916.25;;;15.69;100.00
24666;BME280;29726;53.532;-1.478;2023-03-13T05:55:42;96911.16;;;15.58;100.00
24666;BME280;29726;53.532;-1.478;2023-03-13T05:58:26;96927.03;;;15.72;100.00
24666;BME280;29726;53.532;-1.478;2023-03-13T06:01:12;96972.94;;;15.75;100.00
24666;BME280;29726;53.532;-1.478;2023-03-13T06:03:56;96981.06;;;15.71;100.00
24666;BME280;29726;53.532;-1.478;2023-03-13T06:06:40;96958.09;;;15.65;100.00
24666;BME280;29726;53.532;-1.478;2023-03-13T06:09:24;96975.44;;;15.71;100.00
24666;BME280;29726;53.532;-1.478;2023-03-13T06:12:10;96975.59;;;15.73;100.00
24666;BME280;29726;53.532;-1.478;2023-03-13T06:14:54;96973.34;;;15.71;100.00
24666;BME280;29726;53.532;-1.478;2023-03-13T06:17:38;97000.25;;;15.65;100.00
24666;BME280;29726;53.532;-1.478;2023-03-13T06:20:22;96965.63;;;15.62;100.00
24666;BME280;29726;53.532;-1.478;2023-03-13T06:23:06;96949.06;;;15.66;100.00
24666;BME280;29726;53.532;-1.478;2023-03-13T06:25:50;96953.94;;;15.66;100.00
24666;BME280;29726;53.532;-1.478;2023-03-13T06:28:34;96963.56;;;15.63;100.00
24666;BME280;29726;53.532;-1.478;2023-03-13T06:31:18;96962.69;;;15.60;100.00
24666;BME280;29726;53.532;-1.478;2023-03-13T06:34:03;96969.47;;;15.57;100.00
24666;BME280;29726;53.532;-1.478;2023-03-13T06:36:47;96967.41;;;15.58;100.00
24666;BME280;29726;53.532;-1.478;2023-03-13T06:39:31;96982.47;;;15.53;100.00
24666;BME280;29726;53.532;-1.478;2023-03-13T06:42:15;96952.88;;;15.52;100.00
24666;BME280;29726;53.532;-1.478;2023-03-13T06:44:59;96963.97;;;15.50;100.00
24666;BME280;29726;53.532;-1.478;2023-03-13T06:47:43;96965.72;;;15.45;100.00
24666;BME280;29726;53.532;-1.478;2023-03-13T06:50:27;96972.56;;;15.52;100.00
24666;BME280;29726;53.532;-1.478;2023-03-13T06:53:19;96946.63;;;15.34;100.00
24666;BME280;29726;53.532;-1.478;2023-03-13T06:56:03;96939.69;;;15.45;100.00
24666;BME280;29726;53.532;-1.478;2023-03-13T06:58:48;96960.94;;;15.29;100.00
24666;BME280;29726;53.532;-1.478;2023-03-13T07:01:32;96997.34;;;15.36;100.00
24666;BME280;29726;53.532;-1.478;2023-03-13T07:04:17;96974.91;;;15.46;100.00
24666;BME280;29726;53.532;-1.478;2023-03-13T07:07:01;96936.72;;;15.43;100.00
24666;BME280;29726;53.532;-1.478;2023-03-13T07:09:45;96955.50;;;15.40;100.00
24666;BME280;29726;53.532;-1.478;2023-03-13T07:12:29;96938.66;;;15.40;100.00
24666;BME280;29726;53.532;-1.478;2023-03-13T07:15:13;96928.59;;;15.37;100.00
24666;BME280;29726;53.532;-1.478;2023-03-13T07:17:57;96933.03;;;15.40;100.00
24666;BME280;29726;53.532;-1.478;2023-03-13T07:20:41;96941.72;;;15.35;100.00
24666;BME280;29726;53.532;-1.478;2023-03-13T07:23:27;96928.28;;;15.33;100.00
24666;BME280;29726;53.532;-1.478;2023-03-13T07:26:13;96939.22;;;15.39;100.00
24666;BME280;29726;53.532;-1.478;2023-03-13T07:28:58;96904.66;;;15.19;100.00
24666;BME280;29726;53.532;-1.478;2023-03-13T07:31:42;96924.44;;;15.38;100.00
24666;BME280;29726;53.532;-1.478;2023-03-13T07:34:26;96926.50;;;15.38;100.00
24666;BME280;29726;53.532;-1.478;2023-03-13T07:37:11;96917.91;;;15.36;100.00
24666;BME280;29726;53.532;-1.478;2023-03-13T07:39:56;96909.19;;;15.32;100.00
24666;BME280;29726;53.532;-1.478;2023-03-13T07:42:40;96920.88;;;15.38;100.00
24666;BME280;29726;53.532;-1.478;2023-03-13T07:45:24;96887.13;;;15.28;100.00
24666;BME280;29726;53.532;-1.478;2023-03-13T07:48:08;96885.66;;;15.37;100.00
24666;BME280;29726;53.532;-1.478;2023-03-13T07:50:53;96898.25;;;15.36;100.00
24666;BME280;29726;53.532;-1.478;2023-03-13T07:53:38;96909.63;;;15.38;100.00
24666;BME280;29726;53.532;-1.478;2023-03-13T07:56:23;96894.84;;;15.37;100.00
24666;BME280;29726;53.532;-1.478;2023-03-13T07:59:08;96884.66;;;15.32;100.00
24666;BME280;29726;53.532;-1.478;2023-03-13T08:01:52;96872.94;;;15.36;100.00
24666;BME280;29726;53.532;-1.478;2023-03-13T08:04:36;96875.34;;;15.39;100.00
24666;BME280;29726;53.532;-1.478;2023-03-13T08:07:19;96846.03;;;15.33;100.00
24666;BME280;29726;53.532;-1.478;2023-03-13T08:10:04;96867.97;;;15.44;100.00
24666;BME280;29726;53.532;-1.478;2023-03-13T08:12:48;96859.94;;;15.40;100.00
24666;BME280;29726;53.532;-1.478;2023-03-13T08:15:32;96860.81;;;15.43;100.00
24666;BME280;29726;53.532;-1.478;2023-03-13T08:18:16;96864.41;;;15.53;100.00
24666;BME280;29726;53.532;-1.478;2023-03-13T08:21:05;96865.13;;;15.53;100.00
24666;BME280;29726;53.532;-1.478;2023-03-13T08:23:57;96884.53;;;15.59;100.00
24666;BME280;29726;53.532;-1.478;2023-03-13T08:26:41;96874.47;;;15.56;100.00
24666;BME280;29726;53.532;-1.478;2023-03-13T08:29:25;96880.25;;;15.58;100.00
24666;BME280;29726;53.532;-1.478;2023-03-13T08:32:09;96879.22;;;15.63;100.00
24666;BME280;29726;53.532;-1.478;2023-03-13T08:34:53;96862.94;;;15.61;100.00
24666;BME280;29726;53.532;-1.478;2023-03-13T08:37:37;96862.06;;;15.59;100.00
24666;BME280;29726;53.532;-1.478;2023-03-13T08:40:21;96888.56;;;15.65;100.00
24666;BME280;29726;53.532;-1.478;2023-03-13T08:43:05;96883.84;;;15.68;100.00
24666;BME280;29726;53.532;-1.478;2023-03-13T08:45:56;96876.88;;;15.69;100.00
24666;BME280;29726;53.532;-1.478;2023-03-13T08:48:40;96867.69;;;15.68;100.00
24666;BME280;29726;53.532;-1.478;2023-03-13T08:51:26;96872.72;;;15.70;100.00
24666;BME280;29726;53.532;-1.478;2023-03-13T08:54:10;96874.22;;;15.71;100.00
24666;BME280;29726;53.532;-1.478;2023-03-13T08:56:54;96884.56;;;15.68;100.00
24666;BME280;29726;53.532;-1.478;2023-03-13T08:59:38;96857.06;;;15.67;100.00
24666;BME280;29726;53.532;-1.478;2023-03-13T09:02:22;96877.59;;;15.69;100.00
24666;BME280;29726;53.532;-1.478;2023-03-13T09:05:06;96888.41;;;15.73;100.00
24666;BME280;29726;53.532;-1.478;2023-03-13T09:07:52;96892.09;;;15.75;100.00
24666;BME280;29726;53.532;-1.478;2023-03-13T09:10:36;96871.69;;;15.75;100.00
24666;BME280;29726;53.532;-1.478;2023-03-13T09:13:20;96865.78;;;15.71;100.00
24666;BME280;29726;53.532;-1.478;2023-03-13T09:16:25;96866.22;;;15.77;100.00
24666;BME280;29726;53.532;-1.478;2023-03-13T09:19:09;96880.13;;;15.75;100.00
24666;BME280;29726;53.532;-1.478;2023-03-13T09:21:53;96854.41;;;15.78;100.00
24666;BME280;29726;53.532;-1.478;2023-03-13T09:24:37;96861.31;;;15.77;100.00
24666;BME280;29726;53.532;-1.478;2023-03-13T09:27:23;96863.84;;;15.73;100.00
24666;BME280;29726;53.532;-1.478;2023-03-13T09:30:08;96878.94;;;15.78;100.00
24666;BME280;29726;53.532;-1.478;2023-03-13T09:32:52;96864.75;;;15.85;100.00
24666;BME280;29726;53.532;-1.478;2023-03-13T09:35:39;96868.16;;;15.84;100.00
24666;BME280;29726;53.532;-1.478;2023-03-13T09:38:23;96858.38;;;15.85;100.00
24666;BME280;29726;53.532;-1.478;2023-03-13T09:41:23;96864.16;;;15.87;100.00
24666;BME280;29726;53.532;-1.478;2023-03-13T09:44:31;96848.75;;;15.69;100.00
24666;BME280;29726;53.532;-1.478;2023-03-13T09:47:25;96856.59;;;15.89;100.00
24666;BME280;29726;53.532;-1.478;2023-03-13T09:50:20;96854.53;;;15.90;100.00
24666;BME280;29726;53.532;-1.478;2023-03-13T09:53:20;96830.72;;;15.72;100.00
24666;BME280;29726;53.532;-1.478;2023-03-13T09:56:17;96825.53;;;15.87;100.00
24666;BME280;29726;53.532;-1.478;2023-03-13T09:59:23;96841.66;;;15.87;100.00
24666;BME280;29726;53.532;-1.478;2023-03-13T10:02:20;96817.66;;;15.86;100.00
24666;BME280;29726;53.532;-1.478;2023-03-13T10:05:23;96832.19;;;15.92;100.00
24666;BME280;29726;53.532;-1.478;2023-03-13T10:08:19;96829.25;;;15.90;100.00
24666;BME280;29726;53.532;-1.478;2023-03-13T10:11:24;96834.53;;;15.95;100.00
24666;BME280;29726;53.532;-1.478;2023-03-13T10:14:33;96828.06;;;15.93;100.00
24666;BME280;29726;53.532;-1.478;2023-03-13T10:17:33;96831.44;;;16.01;100.00
24666;BME280;29726;53.532;-1.478;2023-03-13T10:20:45;96840.78;;;16.03;100.00
24666;BME280;29726;53.532;-1.478;2023-03-13T10:23:40;96837.50;;;16.07;100.00
24666;BME280;29726;53.532;-1.478;2023-03-13T10:26:30;96839.59;;;16.06;100.00
24666;BME280;29726;53.532;-1.478;2023-03-13T10:32:07;96839.25;;;16.12;100.00
24666;BME280;29726;53.532;-1.478;2023-03-13T10:34:55;96811.44;;;16.16;100.00
24666;BME280;29726;53.532;-1.478;2023-03-13T10:37:42;96829.94;;;16.19;100.00
24666;BME280;29726;53.532;-1.478;2023-03-13T10:40:27;96843.13;;;16.16;100.00
24666;BME280;29726;53.532;-1.478;2023-03-13T10:43:18;96831.13;;;16.25;100.00
24666;BME280;29726;53.532;-1.478;2023-03-13T10:46:03;96821.50;;;16.28;100.00
24666;BME280;29726;53.532;-1.478;2023-03-13T10:48:48;96821.50;;;16.28;100.00
24666;BME280;29726;53.532;-1.478;2023-03-13T10:51:38;96830.38;;;16.34;100.00
24666;BME280;29726;53.532;-1.478;2023-03-13T10:54:38;96825.03;;;16.38;100.00
24666;BME280;29726;53.532;-1.478;2023-03-13T10:57:31;96827.41;;;16.42;100.00
24666;BME280;29726;53.532;-1.478;2023-03-13T11:00:37;96815.69;;;16.45;100.00
24666;BME280;29726;53.532;-1.478;2023-03-13T11:03:25;96817.03;;;16.44;100.00
24666;BME280;29726;53.532;-1.478;2023-03-13T11:06:29;96821.28;;;16.55;100.00
24666;BME280;29726;53.532;-1.478;2023-03-13T11:09:16;96825.59;;;16.56;100.00
24666;BME280;29726;53.532;-1.478;2023-03-13T11:12:03;96815.53;;;16.53;100.00
24666;BME280;29726;53.532;-1.478;2023-03-13T11:14:55;96808.69;;;16.56;100.00
24666;BME280;29726;53.532;-1.478;2023-03-13T11:17:40;96831.34;;;16.67;100.00
24666;BME280;29726;53.532;-1.478;2023-03-13T11:20:27;96830.13;;;16.70;100.00
24666;BME280;29726;53.532;-1.478;2023-03-13T11:23:32;96828.22;;;16.73;100.00
24666;BME280;29726;53.532;-1.478;2023-03-13T11:26:32;96827.47;;;16.72;100.00
24666;BME280;29726;53.532;-1.478;2023-03-13T11:29:20;96825.94;;;16.80;100.00
24666;BME280;29726;53.532;-1.478;2023-03-13T11:32:21;96816.31;;;16.83;100.00
24666;BME280;29726;53.532;-1.478;2023-03-13T11:38:06;96833.16;;;16.93;100.00
24666;BME280;29726;53.532;-1.478;2023-03-13T11:40:54;96829.44;;;17.00;100.00
24666;BME280;29726;53.532;-1.478;2023-03-13T11:43:53;96821.00;;;17.00;100.00
24666;BME280;29726;53.532;-1.478;2023-03-13T11:53:21;96818.94;;;17.21;100.00
24666;BME280;29726;53.532;-1.478;2023-03-13T11:56:34;96825.28;;;17.31;100.00
24666;BME280;29726;53.532;-1.478;2023-03-13T11:59:34;96825.56;;;17.35;100.00
24666;BME280;29726;53.532;-1.478;2023-03-13T12:02:38;96835.19;;;17.42;100.00
24666;BME280;29726;53.532;-1.478;2023-03-13T12:05:25;96824.91;;;17.46;100.00
24666;BME280;29726;53.532;-1.478;2023-03-13T12:08:35;96833.03;;;17.52;100.00
24666;BME280;29726;53.532;-1.478;2023-03-13T12:11:35;96831.81;;;17.55;100.00
24666;BME280;29726;53.532;-1.478;2023-03-13T12:14:25;96841.56;;;17.63;100.00
24666;BME280;29726;53.532;-1.478;2023-03-13T12:18:11;96817.72;;;17.55;100.00
24666;BME280;29726;53.532;-1.478;2023-03-13T12:21:22;96864.66;;;17.71;100.00
24666;BME280;29726;53.532;-1.478;2023-03-13T12:24:19;96854.78;;;17.82;100.00
24666;BME280;29726;53.532;-1.478;2023-03-13T12:27:18;96837.41;;;17.85;100.00
24666;BME280;29726;53.532;-1.478;2023-03-13T12:33:22;96842.22;;;17.94;100.00
24666;BME280;29726;53.532;-1.478;2023-03-13T12:36:20;96853.94;;;18.00;100.00
24666;BME280;29726;53.532;-1.478;2023-03-13T12:42:48;96883.56;;;18.11;100.00
24666;BME280;29726;53.532;-1.478;2023-03-13T12:45:36;96880.09;;;18.12;100.00
24666;BME280;29726;53.532;-1.478;2023-03-13T13:00:26;96930.06;;;18.31;100.00
24666;BME280;29726;53.532;-1.478;2023-03-13T13:06:14;96927.34;;;18.33;100.00
24666;BME280;29726;53.532;-1.478;2023-03-13T13:09:13;96973.28;;;18.33;100.00
24666;BME280;29726;53.532;-1.478;2023-03-13T13:12:11;96945.50;;;18.30;100.00
24666;BME280;29726;53.532;-1.478;2023-03-13T13:23:50;96936.03;;;18.25;100.00
24666;BME280;29726;53.532;-1.478;2023-03-13T13:26:37;96946.72;;;18.27;100.00
24666;BME280;29726;53.532;-1.478;2023-03-13T13:32:12;96939.31;;;18.22;100.00
24666;BME280;29726;53.532;-1.478;2023-03-13T13:38:26;96947.03;;;18.21;100.00
24666;BME280;29726;53.532;-1.478;2023-03-13T13:44:20;96940.13;;;18.13;100.00
24666;BME280;29726;53.532;-1.478;2023-03-13T13:47:22;96940.88;;;18.13;100.00
24666;BME280;29726;53.532;-1.478;2023-03-13T13:56:51;96950.22;;;18.16;100.00
24666;BME280;29726;53.532;-1.478;2023-03-13T13:59:41;96940.88;;;18.13;100.00
24666;BME280;29726;53.532;-1.478;2023-03-13T14:02:50;96940.59;;;18.09;100.00
24666;BME280;29726;53.532;-1.478;2023-03-13T14:05:38;96895.31;;;18.07;100.00
24666;BME280;29726;53.532;-1.478;2023-03-13T14:08:26;96929.91;;;18.08;100.00
24666;BME280;29726;53.532;-1.478;2023-03-13T14:14:20;96885.75;;;17.91;100.00
24666;BME280;29726;53.532;-1.478;2023-03-13T14:17:08;96902.75;;;18.03;100.00
24666;BME280;29726;53.532;-1.478;2023-03-13T14:19:52;96909.16;;;18.03;100.00
24666;BME280;29726;53.532;-1.478;2023-03-13T14:23:27;96916.16;;;18.02;100.00
24666;BME280;29726;53.532;-1.478;2023-03-13T14:26:16;96928.28;;;18.05;100.00
24666;BME280;29726;53.532;-1.478;2023-03-13T14:29:02;96917.50;;;18.01;100.00
24666;BME280;29726;53.532;-1.478;2023-03-13T14:31:55;96927.56;;;18.04;100.00
24666;BME280;29726;53.532;-1.478;2023-03-13T14:34:39;96926.09;;;18.03;100.00
24666;BME280;29726;53.532;-1.478;2023-03-13T14:37:35;96930.97;;;18.03;100.00
24666;BME280;29726;53.532;-1.478;2023-03-13T14:40:26;96905.78;;;17.95;100.00
24666;BME280;29726;53.532;-1.478;2023-03-13T14:43:31;96911.41;;;17.95;100.00
24666;BME280;29726;53.532;-1.478;2023-03-13T14:46:30;96916.59;;;17.99;100.00
24666;BME280;29726;53.532;-1.478;2023-03-13T14:49:19;96925.25;;;17.91;100.00
24666;BME280;29726;53.532;-1.478;2023-03-13T14:52:06;96917.69;;;17.94;100.00
24666;BME280;29726;53.532;-1.478;2023-03-13T14:55:03;96911.91;;;17.92;100.00
24666;BME280;29726;53.532;-1.478;2023-03-13T14:58:03;96932.25;;;17.90;100.00
24666;BME280;29726;53.532;-1.478;2023-03-13T15:00:48;96939.88;;;17.88;100.00
24666;BME280;29726;53.532;-1.478;2023-03-13T15:03:32;96936.28;;;17.87;100.00
24666;BME280;29726;53.532;-1.478;2023-03-13T15:06:19;96931.25;;;17.86;100.00
24666;BME280;29726;53.532;-1.478;2023-03-13T15:09:19;96918.34;;;17.83;100.00
24666;BME280;29726;53.532;-1.478;2023-03-13T15:12:04;96907.13;;;17.73;100.00
24666;BME280;29726;53.532;-1.478;2023-03-13T15:14:50;96927.16;;;17.77;100.00
24666;BME280;29726;53.532;-1.478;2023-03-13T15:17:35;96915.56;;;17.73;100.00
24666;BME280;29726;53.532;-1.478;2023-03-13T15:20:19;96914.22;;;17.74;100.00
24666;BME280;29726;53.532;-1.478;2023-03-13T15:23:10;96900.75;;;17.73;100.00
24666;BME280;29726;53.532;-1.478;2023-03-13T15:25:56;96916.31;;;17.74;100.00
24666;BME280;29726;53.532;-1.478;2023-03-13T15:28:40;96909.06;;;17.71;100.00
24666;BME280;29726;53.532;-1.478;2023-03-13T15:31:27;96909.22;;;17.73;100.00
24666;BME280;29726;53.532;-1.478;2023-03-13T15:34:12;96900.28;;;17.76;100.00